Time;durP1;ratioP1;P1;durP2;ratioP2;P2;SDS_P1;SDS_P2;PMS_P1;PMS_P2;Temp;Humidity;BMP_temperature;BMP_pressure;BME280_temperature;BME280_humidity;BME280_pressure;Samples;Min_cycle;Max_cycle;Signal;HPM_P1;HPM_P2
2022/10/05 00:00:28;;;;;;;0.50;0.50;;;15.50;99.90;;;;;;4967739;28;20371;-82
2022/10/05 00:02:55;;;;;;;0.50;0.50;;;15.60;99.90;;;;;;4965858;28;20734;-81
2022/10/05 00:05:40;;;;;;;0.50;0.50;;;15.60;99.90;;;;;;4970603;28;20626;-82
2022/10/05 00:08:24;;;;;;;0.50;0.50;;;15.50;99.90;;;;;;4965086;28;20044;-81
2022/10/05 00:10:51;;;;;;;0.70;0.70;;;15.50;99.90;;;;;;4963504;28;20702;-82
2022/10/05 00:13:23;;;;;;;0.50;0.50;;;15.60;99.90;;;;;;4960849;28;20083;-82
2022/10/05 00:15:51;;;;;;;0.50;0.50;;;15.50;99.90;;;;;;4964739;28;20099;-82
2022/10/05 00:18:20;;;;;;;0.50;0.50;;;15.50;99.90;;;;;;4967416;28;20060;-82
2022/10/05 00:20:48;;;;;;;0.50;0.50;;;15.50;99.90;;;;;;4968883;28;20211;-82
2022/10/05 00:23:24;;;;;;;0.50;0.50;;;15.60;99.90;;;;;;4950511;28;20045;-81
2022/10/05 00:25:50;;;;;;;0.50;0.50;;;15.60;99.90;;;;;;4975439;28;20072;-81
2022/10/05 00:28:28;;;;;;;0.50;0.50;;;15.60;99.90;;;;;;4974236;28;20071;-82
2022/10/05 00:30:59;;;;;;;0.50;0.50;;;15.60;99.90;;;;;;4974716;28;20064;-84
2022/10/05 00:33:26;;;;;;;0.50;0.50;;;15.60;99.90;;;;;;4948370;28;20487;-82
2022/10/05 00:35:53;;;;;;;0.50;0.50;;;15.60;99.90;;;;;;4965434;28;20369;-81
2022/10/05 00:38:19;;;;;;;0.50;0.50;;;15.60;99.90;;;;;;4967457;28;20080;-81
2022/10/05 00:41:09;;;;;;;0.50;0.50;;;15.50;99.90;;;;;;4978816;28;20063;-83
2022/10/05 00:44:14;;;;;;;0.50;0.50;;;15.50;99.90;;;;;;4957198;28;20206;-82
2022/10/05 00:46:55;;;;;;;0.50;0.50;;;15.50;99.90;;;;;;4974497;28;20049;-82
2022/10/05 00:49:51;;;;;;;0.50;0.50;;;15.50;99.90;;;;;;4977483;28;20795;-83
2022/10/05 00:52:40;;;;;;;0.50;0.50;;;15.40;99.90;;;;;;4977436;28;20052;-83
2022/10/05 00:55:27;;;;;;;0.50;0.50;;;15.40;99.90;;;;;;4971817;28;20049;-83
2022/10/05 00:58:06;;;;;;;0.50;0.50;;;15.40;99.90;;;;;;4979158;28;20473;-81
2022/10/05 01:00:39;;;;;;;0.50;0.50;;;15.40;99.90;;;;;;4977195;28;20111;-83
2022/10/05 01:03:20;;;;;;;0.50;0.50;;;15.40;99.90;;;;;;4980010;28;20055;-81
2022/10/05 01:06:04;;;;;;;0.50;0.50;;;15.40;99.90;;;;;;4974296;28;20102;-81
2022/10/05 01:08:49;;;;;;;0.50;0.50;;;15.30;99.90;;;;;;4972934;28;20049;-81
2022/10/05 01:11:30;;;;;;;0.60;0.60;;;15.40;99.90;;;;;;4962558;28;20826;-82
2022/10/05 01:14:42;;;;;;;0.50;0.50;;;15.30;99.90;;;;;;4971064;28;20643;-83
2022/10/05 01:17:12;;;;;;;0.50;0.50;;;15.30;99.90;;;;;;4968337;28;20056;-83
2022/10/05 01:20:08;;;;;;;0.50;0.50;;;15.20;99.90;;;;;;4968895;28;20048;-83
2022/10/05 01:22:48;;;;;;;0.50;0.50;;;15.20;99.90;;;;;;4976804;28;20411;-81
2022/10/05 01:25:22;;;;;;;0.50;0.50;;;15.20;99.90;;;;;;4966558;28;20159;-80
2022/10/05 01:28:08;;;;;;;0.50;0.50;;;15.20;99.90;;;;;;4953970;28;20457;-83
2022/10/05 01:30:45;;;;;;;0.50;0.50;;;15.20;99.90;;;;;;4955284;28;20899;-81
2022/10/05 01:33:19;;;;;;;0.50;0.50;;;15.30;99.90;;;;;;4974569;28;20048;-83
2022/10/05 01:36:19;;;;;;;0.50;0.50;;;15.20;99.90;;;;;;4959397;28;20049;-83
2022/10/05 01:39:14;;;;;;;0.50;0.50;;;15.20;99.90;;;;;;4969871;28;20053;-85
2022/10/05 01:41:51;;;;;;;0.50;0.50;;;15.30;99.90;;;;;;4967764;28;21030;-82
2022/10/05 01:44:25;;;;;;;0.50;0.50;;;15.20;99.90;;;;;;4969065;28;20051;-81
2022/10/05 01:47:25;;;;;;;0.60;0.60;;;15.20;99.90;;;;;;4974299;28;20049;-81
2022/10/05 01:49:53;;;;;;;0.50;0.50;;;15.20;99.90;;;;;;4969185;28;20843;-82
2022/10/05 01:52:47;;;;;;;0.50;0.50;;;15.20;99.90;;;;;;4954517;28;20131;-83
2022/10/05 01:55:50;;;;;;;0.50;0.50;;;15.20;99.90;;;;;;4963423;28;20458;-83
2022/10/05 01:58:39;;;;;;;0.50;0.50;;;15.20;99.90;;;;;;4963834;28;20037;-82
2022/10/05 02:01:23;;;;;;;0.50;0.50;;;15.20;99.90;;;;;;4960784;28;20367;-81
2022/10/05 02:03:56;;;;;;;;;;;15.20;99.90;;;;;;4971214;28;20095;-82
2022/10/05 02:06:28;;;;;;;0.50;0.50;;;15.20;99.90;;;;;;4974128;28;20397;-81
2022/10/05 02:09:09;;;;;;;0.57;0.57;;;15.20;99.90;;;;;;4967128;28;20051;-84
2022/10/05 02:11:38;;;;;;;0.50;0.50;;;15.20;99.90;;;;;;4959140;28;20516;-81
2022/10/05 02:14:11;;;;;;;0.50;0.50;;;15.10;99.90;;;;;;4966663;28;20064;-81
2022/10/05 02:16:42;;;;;;;0.60;0.60;;;15.10;99.90;;;;;;4969824;28;20608;-83
2022/10/05 02:19:22;;;;;;;0.50;0.50;;;15.10;99.90;;;;;;4960515;28;20056;-82
2022/10/05 02:21:53;;;;;;;0.50;0.50;;;15.00;99.90;;;;;;4973575;28;20695;-82
2022/10/05 02:24:27;;;;;;;0.50;0.50;;;15.00;99.90;;;;;;4969084;28;20504;-82
2022/10/05 02:26:55;;;;;;;0.50;0.50;;;15.00;99.90;;;;;;4979337;28;20238;-81
2022/10/05 02:29:27;;;;;;;0.50;0.50;;;15.00;99.90;;;;;;4982163;28;20106;-82
2022/10/05 02:32:13;;;;;;;0.50;0.50;;;15.00;99.90;;;;;;4963386;28;20065;-82
2022/10/05 02:34:41;;;;;;;0.50;0.50;;;14.90;99.90;;;;;;4978576;28;20599;-81
2022/10/05 02:37:26;;;;;;;0.50;0.50;;;14.90;99.90;;;;;;4971197;28;20498;-80
2022/10/05 02:40:11;;;;;;;0.50;0.50;;;14.90;99.90;;;;;;4969615;28;20626;-82
2022/10/05 02:43:04;;;;;;;0.50;0.50;;;14.90;99.90;;;;;;4968296;28;20131;-82
2022/10/05 02:45:45;;;;;;;0.50;0.50;;;14.90;99.90;;;;;;4976344;28;20389;-82
2022/10/05 02:48:17;;;;;;;0.50;0.50;;;14.80;99.90;;;;;;4990403;28;20049;-83
2022/10/05 02:51:06;;;;;;;0.50;0.50;;;14.80;99.90;;;;;;4969797;28;20202;-83
2022/10/05 02:53:59;;;;;;;0.50;0.50;;;14.80;99.90;;;;;;4970210;28;20103;-81
2022/10/05 02:56:36;;;;;;;0.50;0.50;;;14.70;99.90;;;;;;4947683;28;20092;-82
2022/10/05 02:59:40;;;;;;;0.50;0.50;;;14.70;99.90;;;;;;4967841;28;20041;-83
2022/10/05 03:02:27;;;;;;;0.50;0.50;;;14.70;99.90;;;;;;4978523;28;20505;-82
2022/10/05 03:05:25;;;;;;;0.50;0.50;;;14.60;99.90;;;;;;4973050;28;20720;-83
2022/10/05 03:08:23;;;;;;;0.50;0.50;;;14.60;99.90;;;;;;4997811;28;20553;-82
2022/10/05 03:11:04;;;;;;;0.50;0.50;;;14.70;99.90;;;;;;4962850;28;20525;-81
2022/10/05 03:13:45;;;;;;;0.60;0.60;;;14.70;99.90;;;;;;4981927;28;20477;-81
2022/10/05 03:16:44;;;;;;;0.50;0.50;;;14.70;99.90;;;;;;4973155;28;20516;-82
2022/10/05 03:19:37;;;;;;;0.50;0.50;;;14.60;99.90;;;;;;4978662;28;20421;-82
2022/10/05 03:22:18;;;;;;;0.50;0.50;;;14.60;99.90;;;;;;4969376;28;20463;-81
2022/10/05 03:25:18;;;;;;;0.50;0.50;;;14.60;99.90;;;;;;4967852;28;20048;-81
2022/10/05 03:28:08;;;;;;;0.50;0.50;;;14.60;99.90;;;;;;4967779;28;20050;-84
2022/10/05 03:30:46;;;;;;;0.50;0.50;;;14.60;99.90;;;;;;4973532;28;20142;-83
2022/10/05 03:33:33;;;;;;;0.50;0.50;;;14.60;99.90;;;;;;4957393;28;20423;-83
2022/10/05 03:36:07;;;;;;;0.60;0.60;;;14.60;99.90;;;;;;4979623;28;20054;-82
2022/10/05 03:38:46;;;;;;;0.50;0.50;;;14.60;99.90;;;;;;4974627;28;20044;-83
2022/10/05 03:41:33;;;;;;;0.50;0.50;;;14.60;99.90;;;;;;4967995;28;20049;-84
2022/10/05 03:44:25;;;;;;;0.50;0.50;;;14.50;99.90;;;;;;4970379;28;20374;-81
2022/10/05 03:47:12;;;;;;;0.50;0.50;;;14.50;99.90;;;;;;4960394;28;20152;-82
2022/10/05 03:49:51;;;;;;;0.50;0.50;;;14.50;99.90;;;;;;4976696;28;20048;-83
2022/10/05 03:52:41;;;;;;;0.50;0.50;;;14.50;99.90;;;;;;4974948;28;20083;-83
2022/10/05 03:55:16;;;;;;;0.50;0.50;;;14.50;99.90;;;;;;4967269;28;20636;-80
2022/10/05 03:57:44;;;;;;;0.50;0.50;;;14.50;99.90;;;;;;4952613;28;20455;-83
2022/10/05 04:00:21;;;;;;;0.50;0.50;;;14.60;99.90;;;;;;4944398;28;20040;-82
2022/10/05 04:02:58;;;;;;;0.50;0.50;;;14.60;99.90;;;;;;4967025;28;20037;-83
2022/10/05 04:05:35;;;;;;;0.50;0.50;;;14.60;99.90;;;;;;4972916;28;20043;-81
2022/10/05 04:08:24;;;;;;;0.50;0.50;;;14.50;99.90;;;;;;4969591;28;20072;-82
2022/10/05 04:10:56;;;;;;;0.50;0.50;;;14.50;99.90;;;;;;4968395;28;20051;-82
2022/10/05 04:13:37;;;;;;;0.50;0.50;;;14.50;99.90;;;;;;4964175;28;20110;-82
2022/10/05 04:16:10;;;;;;;0.60;0.60;;;14.50;99.90;;;;;;4963267;28;20450;-82
2022/10/05 04:18:43;;;;;;;0.50;0.50;;;14.50;99.90;;;;;;4969320;28;20052;-81
2022/10/05 04:21:17;;;;;;;0.60;0.60;;;14.50;99.90;;;;;;4966737;28;20041;-82
2022/10/05 04:23:56;;;;;;;;;;;14.50;99.90;;;;;;4960107;28;20860;-83
2022/10/05 04:26:30;;;;;;;0.50;0.50;;;14.50;99.90;;;;;;4972940;28;21745;-81
2022/10/05 04:29:10;;;;;;;0.50;0.50;;;14.50;99.90;;;;;;4969594;28;20077;-82
2022/10/05 04:31:43;;;;;;;0.50;0.50;;;14.50;99.90;;;;;;4968745;28;20539;-81
2022/10/05 04:34:15;;;;;;;;;;;14.50;99.90;;;;;;4975447;28;20084;-81
2022/10/05 04:37:00;;;;;;;0.60;0.60;;;14.40;99.90;;;;;;4966405;28;19928;-83
2022/10/05 04:39:36;;;;;;;0.60;0.60;;;14.40;99.90;;;;;;4956591;28;20117;-81
2022/10/05 04:42:53;;;;;;;0.50;0.50;;;14.40;99.90;;;;;;4967001;28;20603;-81
2022/10/05 04:45:45;;;;;;;0.50;0.50;;;14.40;99.90;;;;;;4937977;28;20139;-84
2022/10/05 04:48:49;;;;;;;0.50;0.50;;;14.40;99.90;;;;;;4958999;28;20059;-82
2022/10/05 04:51:48;;;;;;;0.60;0.60;;;14.40;99.90;;;;;;4948502;28;20371;-82
2022/10/05 04:54:40;;;;;;;0.60;0.60;;;14.40;99.90;;;;;;4949986;28;20067;-83
2022/10/05 04:57:12;;;;;;;0.50;0.50;;;14.40;99.90;;;;;;4958853;28;20049;-82
2022/10/05 05:00:04;;;;;;;0.50;0.50;;;14.40;99.90;;;;;;4964552;28;20564;-81
2022/10/05 05:02:33;;;;;;;0.60;0.60;;;14.50;99.90;;;;;;4944854;28;20087;-82
2022/10/05 05:05:17;;;;;;;0.50;0.50;;;14.50;99.90;;;;;;4945619;28;20167;-83
2022/10/05 05:08:02;;;;;;;;;;;14.40;99.90;;;;;;4961217;28;20045;-81
2022/10/05 05:10:46;;;;;;;0.52;0.52;;;14.40;99.90;;;;;;4942532;28;20039;-81
2022/10/05 05:13:48;;;;;;;0.50;0.50;;;14.50;99.90;;;;;;4961097;28;20056;-82
2022/10/05 05:16:36;;;;;;;0.50;0.50;;;14.50;99.90;;;;;;4962788;28;20233;-83
2022/10/05 05:19:45;;;;;;;0.55;0.55;;;14.40;99.90;;;;;;4973010;28;21042;-82
2022/10/05 05:22:46;;;;;;;0.50;0.50;;;14.40;99.90;;;;;;4943539;28;20318;-81
2022/10/05 05:25:30;;;;;;;0.60;0.60;;;14.50;99.90;;;;;;4962312;28;20059;-83
2022/10/05 05:27:59;;;;;;;;;;;14.40;99.90;;;;;;4969005;28;20718;-83
2022/10/05 05:30:34;;;;;;;0.50;0.50;;;14.40;99.90;;;;;;4973763;28;19935;-81
2022/10/05 05:33:26;;;;;;;0.50;0.50;;;14.40;99.90;;;;;;4974883;28;20105;-82
2022/10/05 05:36:01;;;;;;;0.60;0.60;;;14.40;99.90;;;;;;4976003;28;20820;-82
2022/10/05 05:38:39;;;;;;;0.50;0.50;;;14.50;99.90;;;;;;4981436;28;20453;-83
2022/10/05 05:41:21;;;;;;;0.50;0.50;;;14.50;99.90;;;;;;4978026;28;20052;-84
2022/10/05 05:44:02;;;;;;;0.60;0.60;;;14.50;99.90;;;;;;4983227;28;20443;-82
2022/10/05 05:46:37;;;;;;;0.60;0.60;;;14.50;99.90;;;;;;4956040;28;20049;-84
2022/10/05 05:49:14;;;;;;;0.60;0.60;;;14.50;99.90;;;;;;4956664;28;20091;-81
2022/10/05 05:51:53;;;;;;;0.60;0.60;;;14.50;99.90;;;;;;4980658;28;20049;-83
2022/10/05 05:54:35;;;;;;;0.55;0.55;;;14.50;99.90;;;;;;4966322;28;20110;-80
2022/10/05 05:57:23;;;;;;;0.50;0.50;;;14.50;99.90;;;;;;4948887;28;20075;-83
2022/10/05 06:00:00;;;;;;;0.52;0.52;;;14.50;99.90;;;;;;4967415;28;20659;-81
2022/10/05 06:02:53;;;;;;;0.50;0.50;;;14.60;99.90;;;;;;4961779;28;20494;-81
2022/10/05 06:05:43;;;;;;;0.50;0.50;;;14.60;99.90;;;;;;4932991;28;20490;-84
2022/10/05 06:08:19;;;;;;;0.50;0.50;;;14.60;99.90;;;;;;4970604;28;20380;-81
2022/10/05 06:11:02;;;;;;;0.55;0.55;;;14.60;99.90;;;;;;4963341;28;20115;-81
2022/10/05 06:13:34;;;;;;;0.57;0.57;;;14.60;99.90;;;;;;4970771;28;20059;-82
2022/10/05 06:16:10;;;;;;;0.60;0.60;;;14.60;99.90;;;;;;4945272;28;20145;-82
2022/10/05 06:18:42;;;;;;;0.60;0.60;;;14.60;99.90;;;;;;4958168;28;20771;-80
2022/10/05 06:21:43;;;;;;;0.50;0.50;;;14.70;99.90;;;;;;4966076;28;20048;-82
2022/10/05 06:24:34;;;;;;;0.50;0.50;;;14.70;99.90;;;;;;4902044;28;20053;-84
2022/10/05 06:27:18;;;;;;;0.50;0.50;;;14.70;99.90;;;;;;4959763;28;20499;-82
2022/10/05 06:30:14;;;;;;;0.50;0.50;;;14.70;99.90;;;;;;4965990;28;20188;-83
2022/10/05 06:32:58;;;;;;;0.60;0.60;;;14.80;99.90;;;;;;4967621;28;20051;-82
2022/10/05 06:35:55;;;;;;;0.60;0.60;;;14.80;99.90;;;;;;4971615;28;21176;-81
2022/10/05 06:38:36;;;;;;;0.50;0.50;;;14.80;99.90;;;;;;4961930;28;20059;-81
2022/10/05 06:41:40;;;;;;;0.50;0.50;;;14.80;99.90;;;;;;4961451;28;20082;-81
2022/10/05 06:44:33;;;;;;;0.50;0.50;;;14.90;99.90;;;;;;4961978;28;20054;-82
2022/10/05 06:47:17;;;;;;;0.60;0.60;;;14.90;99.90;;;;;;4966254;28;20547;-82
2022/10/05 06:50:32;;;;;;;0.50;0.50;;;14.90;99.90;;;;;;4968101;28;20041;-82
2022/10/05 06:53:35;;;;;;;0.50;0.50;;;14.90;99.90;;;;;;4965155;28;20707;-80
2022/10/05 06:56:08;;;;;;;0.50;0.50;;;14.90;99.90;;;;;;4975629;28;20424;-86
2022/10/05 06:58:53;;;;;;;0.50;0.50;;;15.00;99.90;;;;;;4968252;28;20872;-82
2022/10/05 07:01:22;;;;;;;0.50;0.50;;;15.00;99.90;;;;;;4957143;28;20044;-80
2022/10/05 07:04:06;;;;;;;0.50;0.50;;;15.00;99.90;;;;;;4956463;28;20548;-81
2022/10/05 07:06:41;;;;;;;0.50;0.50;;;15.00;99.90;;;;;;4953093;28;20106;-82
2022/10/05 07:09:29;;;;;;;0.50;0.50;;;15.00;99.90;;;;;;4953242;28;20045;-83
2022/10/05 07:12:24;;;;;;;0.50;0.50;;;15.00;99.90;;;;;;4958659;28;20060;-82
2022/10/05 07:14:49;;;;;;;;;;;15.00;99.90;;;;;;4972716;28;20056;-81
2022/10/05 07:17:30;;;;;;;0.50;0.50;;;15.10;99.90;;;;;;4968766;28;19951;-83
2022/10/05 07:20:17;;;;;;;0.50;0.50;;;15.00;99.90;;;;;;4946164;28;20049;-81
2022/10/05 07:23:10;;;;;;;0.60;0.60;;;15.00;99.90;;;;;;4959308;28;20086;-80
2022/10/05 07:25:48;;;;;;;0.50;0.50;;;15.00;99.90;;;;;;4970035;28;20478;-81
2022/10/05 07:28:23;;;;;;;0.50;0.50;;;15.00;99.90;;;;;;4971965;28;20049;-82
2022/10/05 07:30:57;;;;;;;0.50;0.50;;;15.00;99.90;;;;;;4970095;28;20095;-80
2022/10/05 07:33:37;;;;;;;0.50;0.50;;;15.00;99.90;;;;;;4965838;28;20585;-80
2022/10/05 07:39:05;;;;;;;0.50;0.50;;;15.10;99.90;;;;;;4971315;28;20056;-81
2022/10/05 07:41:50;;;;;;;0.50;0.50;;;15.10;99.90;;;;;;4970632;28;20466;-82
2022/10/05 07:44:43;;;;;;;0.50;0.50;;;15.10;99.90;;;;;;4968719;28;20924;-82
2022/10/05 07:47:19;;;;;;;0.50;0.50;;;15.20;99.90;;;;;;4970732;28;20077;-81
2022/10/05 07:50:02;;;;;;;0.50;0.50;;;15.20;99.90;;;;;;4948746;28;20422;-82
2022/10/05 07:52:37;;;;;;;0.50;0.50;;;15.20;99.90;;;;;;4967210;28;21045;-81
2022/10/05 07:55:06;;;;;;;0.50;0.50;;;15.20;99.90;;;;;;4967816;28;20186;-81
2022/10/05 07:57:38;;;;;;;0.60;0.60;;;15.20;99.90;;;;;;4971136;28;20139;-83
2022/10/05 08:00:21;;;;;;;0.50;0.50;;;15.30;99.90;;;;;;4976126;28;20212;-82
2022/10/05 08:02:58;;;;;;;0.50;0.50;;;15.30;99.90;;;;;;4965759;28;20059;-81
2022/10/05 08:05:32;;;;;;;0.50;0.50;;;15.30;99.90;;;;;;4958930;28;20059;-82
2022/10/05 08:08:10;;;;;;;0.50;0.50;;;15.40;99.90;;;;;;4962305;28;20056;-82
2022/10/05 08:10:59;;;;;;;0.50;0.50;;;15.40;99.90;;;;;;4966839;28;20052;-82
2022/10/05 08:13:32;;;;;;;0.50;0.50;;;15.50;99.90;;;;;;4974051;28;20569;-81
2022/10/05 08:16:03;;;;;;;0.50;0.50;;;15.50;99.90;;;;;;4954343;28;20049;-82
2022/10/05 08:18:59;;;;;;;0.50;0.50;;;15.50;99.90;;;;;;4973346;28;20469;-81
2022/10/05 08:21:37;;;;;;;0.50;0.50;;;15.60;99.90;;;;;;4967337;28;20072;-81
2022/10/05 08:24:29;;;;;;;0.50;0.50;;;15.70;99.90;;;;;;4946191;28;20130;-80
2022/10/05 08:27:28;;;;;;;0.50;0.50;;;15.80;99.90;;;;;;4943516;28;20773;-79
2022/10/05 08:30:20;;;;;;;0.50;0.50;;;15.80;99.90;;;;;;4966232;28;20691;-77
2022/10/05 08:33:01;;;;;;;0.50;0.50;;;15.90;99.90;;;;;;4959137;28;20052;-77
2022/10/05 08:35:36;;;;;;;0.50;0.50;;;16.00;99.90;;;;;;4961146;28;20879;-78
2022/10/05 08:38:12;;;;;;;0.50;0.50;;;16.10;99.90;;;;;;4962510;28;20053;-83
2022/10/05 08:40:55;;;;;;;0.50;0.50;;;16.10;99.90;;;;;;4968486;28;20489;-78
2022/10/05 08:43:36;;;;;;;0.50;0.50;;;16.10;99.90;;;;;;4966856;28;20341;-81
2022/10/05 08:46:39;;;;;;;0.50;0.50;;;16.20;99.90;;;;;;4966730;28;20059;-82
2022/10/05 08:49:13;;;;;;;0.50;0.50;;;16.40;99.90;;;;;;4967644;28;20096;-81
2022/10/05 08:52:00;;;;;;;0.50;0.50;;;16.40;99.90;;;;;;4946389;28;20056;-83
2022/10/05 08:54:38;;;;;;;0.50;0.50;;;16.50;99.90;;;;;;4970897;28;20098;-81
2022/10/05 08:57:42;;;;;;;0.50;0.50;;;16.60;99.90;;;;;;4963649;28;20044;-81
2022/10/05 09:00:12;;;;;;;0.50;0.50;;;16.70;99.90;;;;;;4963675;28;20502;-82
2022/10/05 09:03:02;;;;;;;0.50;0.50;;;16.70;99.90;;;;;;4967574;28;20159;-82
2022/10/05 09:05:59;;;;;;;0.50;0.50;;;16.70;99.90;;;;;;4968958;28;20203;-81
2022/10/05 09:08:57;;;;;;;0.50;0.50;;;16.90;99.90;;;;;;4965001;28;20501;-83
2022/10/05 09:11:25;;;;;;;0.50;0.50;;;16.90;99.90;;;;;;4967126;28;20056;-79
2022/10/05 09:14:15;;;;;;;0.50;0.50;;;16.90;99.90;;;;;;4972771;28;20045;-85
2022/10/05 09:17:05;;;;;;;0.50;0.50;;;16.90;99.90;;;;;;4979477;28;20171;-83
2022/10/05 09:19:52;;;;;;;0.50;0.50;;;17.00;99.90;;;;;;4973687;28;20090;-81
2022/10/05 09:22:37;;;;;;;0.50;0.50;;;17.00;99.90;;;;;;4973542;28;20486;-86
2022/10/05 09:25:21;;;;;;;0.50;0.50;;;17.10;99.90;;;;;;4948758;28;20044;-82
2022/10/05 09:28:15;;;;;;;0.50;0.50;;;17.10;99.90;;;;;;4969982;28;21023;-85
2022/10/05 09:31:15;;;;;;;0.50;0.50;;;17.10;99.90;;;;;;4971214;28;20060;-81
2022/10/05 09:33:44;;;;;;;0.50;0.50;;;17.10;99.90;;;;;;4968118;28;20480;-81
2022/10/05 09:36:48;;;;;;;0.47;0.47;;;17.30;99.90;;;;;;4971830;28;20075;-82
2022/10/05 09:39:53;;;;;;;0.50;0.50;;;17.10;99.90;;;;;;4968927;28;20052;-80
2022/10/05 09:42:57;;;;;;;0.50;0.50;;;17.10;99.90;;;;;;4971363;28;20060;-84
2022/10/05 09:45:47;;;;;;;0.50;0.50;;;17.20;99.90;;;;;;4972401;28;20244;-80
2022/10/05 09:48:45;;;;;;;0.50;0.50;;;17.20;99.90;;;;;;4956559;28;20167;-90
2022/10/05 09:51:50;;;;;;;0.40;0.40;;;17.10;99.90;;;;;;4965335;28;20367;-83
2022/10/05 09:55:01;;;;;;;0.50;0.50;;;17.00;99.90;;;;;;4968350;28;20131;-81
2022/10/05 09:57:39;;;;;;;0.50;0.50;;;17.10;99.90;;;;;;4952952;28;20687;-83
2022/10/05 10:00:29;;;;;;;0.40;0.40;;;17.20;99.90;;;;;;4948485;28;20045;-81
2022/10/05 10:03:25;;;;;;;0.40;0.40;;;17.20;99.90;;;;;;4967473;28;20397;-81
2022/10/05 10:06:11;;;;;;;0.47;0.47;;;17.20;99.90;;;;;;4993671;28;20135;-88
2022/10/05 10:09:31;;;;;;;0.40;0.40;;;17.20;99.90;;;;;;4954067;28;20083;-85
2022/10/05 10:12:11;;;;;;;0.50;0.50;;;17.30;99.90;;;;;;4899720;28;20089;-82
2022/10/05 10:15:23;;;;;;;0.40;0.40;;;17.30;99.90;;;;;;4891376;28;20600;-86
2022/10/05 10:18:04;;;;;;;0.50;0.50;;;17.20;99.90;;;;;;4976821;28;20933;-86
2022/10/05 10:21:05;;;;;;;0.40;0.40;;;17.20;99.90;;;;;;4961322;28;20047;-80
2022/10/05 10:23:43;;;;;;;0.50;0.50;;;17.30;99.90;;;;;;4950340;28;20946;-86
2022/10/05 10:26:18;;;;;;;0.50;0.50;;;17.30;99.90;;;;;;4982552;28;20390;-81
2022/10/05 10:29:08;;;;;;;0.40;0.40;;;17.30;99.90;;;;;;4985984;28;20211;-83
2022/10/05 10:32:14;;;;;;;0.43;0.43;;;17.20;99.90;;;;;;4979632;28;20057;-87
2022/10/05 10:35:05;;;;;;;0.50;0.50;;;17.20;99.90;;;;;;4946719;28;20057;-81
2022/10/05 10:37:39;;;;;;;0.43;0.43;;;17.10;99.90;;;;;;4971725;28;20832;-84
2022/10/05 10:40:37;;;;;;;0.50;0.50;;;17.20;99.90;;;;;;4977667;28;20049;-84
2022/10/05 10:43:50;;;;;;;0.43;0.43;;;17.20;99.90;;;;;;4973081;28;20406;-82
2022/10/05 10:46:38;;;;;;;0.50;0.50;;;17.20;99.90;;;;;;4973416;28;20048;-87
2022/10/05 10:49:40;;;;;;;0.40;0.40;;;17.20;99.90;;;;;;4983413;28;20425;-83
2022/10/05 10:52:31;;;;;;;0.43;0.43;;;17.40;99.90;;;;;;4962968;28;20472;-86
2022/10/05 10:55:05;;;;;;;0.40;0.40;;;17.50;99.90;;;;;;4985879;28;20625;-81
2022/10/05 10:57:49;;;;;;;0.40;0.40;;;17.60;99.90;;;;;;4986079;28;20405;-82
2022/10/05 11:00:40;;;;;;;0.40;0.40;;;17.70;99.90;;;;;;4963960;28;20656;-80
2022/10/05 11:03:37;;;;;;;0.40;0.40;;;17.70;99.90;;;;;;4975893;28;20057;-81
2022/10/05 11:06:26;;;;;;;0.40;0.40;;;17.90;99.90;;;;;;4983728;28;20072;-81
2022/10/05 11:09:13;;;;;;;0.40;0.40;;;18.00;99.90;;;;;;4975772;28;20143;-81
2022/10/05 11:12:08;;;;;;;0.40;0.40;;;18.10;99.90;;;;;;4960720;28;20055;-81
2022/10/05 11:14:59;;;;;;;0.47;0.47;;;18.20;99.90;;;;;;4973308;28;20052;-81
2022/10/05 11:18:06;;;;;;;0.40;0.40;;;18.20;99.90;;;;;;4977037;28;20055;-83
2022/10/05 11:20:35;;;;;;;0.40;0.40;;;18.20;99.90;;;;;;4971630;28;20222;-79
2022/10/05 11:23:45;;;;;;;0.50;0.50;;;18.30;99.90;;;;;;4969431;28;20083;-82
2022/10/05 11:26:39;;;;;;;0.40;0.40;;;18.40;99.90;;;;;;4972776;28;20080;-80
2022/10/05 11:29:33;;;;;;;0.40;0.40;;;18.50;99.90;;;;;;4969896;28;20084;-85
2022/10/05 11:31:59;;;;;;;0.40;0.40;;;18.50;99.90;;;;;;4965983;28;20052;-82
2022/10/05 11:34:34;;;;;;;0.40;0.40;;;18.60;99.90;;;;;;4968199;28;20084;-82
2022/10/05 11:37:35;;;;;;;0.40;0.40;;;18.50;99.90;;;;;;4961494;28;20110;-79
2022/10/05 11:40:30;;;;;;;0.40;0.40;;;18.60;99.90;;;;;;4959353;28;20063;-79
2022/10/05 11:43:11;;;;;;;0.40;0.40;;;18.60;99.90;;;;;;4958989;28;20516;-81
2022/10/05 11:45:59;;;;;;;0.40;0.40;;;18.70;99.90;;;;;;4964605;28;20047;-85
2022/10/05 11:48:44;;;;;;;0.40;0.40;;;18.60;99.90;;;;;;4974253;28;20943;-81
2022/10/05 11:51:09;;;;;;;0.40;0.40;;;18.60;99.90;;;;;;4948655;28;20049;-84
2022/10/05 11:53:50;;;;;;;0.40;0.40;;;18.80;99.90;;;;;;4958398;28;20040;-80
2022/10/05 11:56:36;;;;;;;0.40;0.40;;;18.70;99.90;;;;;;4977063;28;20060;-83
2022/10/05 11:59:10;;;;;;;0.40;0.40;;;18.70;99.90;;;;;;4972006;28;20132;-84
2022/10/05 12:02:12;;;;;;;0.40;0.40;;;18.70;99.90;;;;;;4978752;28;20988;-82
2022/10/05 12:04:57;;;;;;;0.40;0.40;;;18.60;99.90;;;;;;4964816;28;20048;-83
2022/10/05 12:07:22;;;;;;;;;;;18.60;99.90;;;;;;4954776;28;20799;-81
2022/10/05 12:10:19;;;;;;;0.50;0.50;;;18.50;99.90;;;;;;4947898;28;19935;-82
2022/10/05 12:13:18;;;;;;;0.40;0.40;;;18.50;99.90;;;;;;4970872;28;20151;-82
2022/10/05 12:15:47;;;;;;;0.47;0.47;;;18.40;99.90;;;;;;4973005;28;20040;-81
2022/10/05 12:18:32;;;;;;;0.50;0.50;;;18.30;99.90;;;;;;4970288;28;20236;-82
2022/10/05 12:21:21;;;;;;;0.50;0.50;;;18.30;99.90;;;;;;4968405;28;20053;-85
2022/10/05 12:24:02;;;;;;;0.50;0.50;;;18.40;99.90;;;;;;4971842;28;20508;-81
2022/10/05 12:26:31;;;;;;;0.40;0.40;;;18.40;99.90;;;;;;4973351;28;20417;-83
2022/10/05 12:29:00;;;;;;;0.50;0.50;;;18.30;99.90;;;;;;4972933;28;20044;-81
2022/10/05 12:32:06;;;;;;;0.50;0.50;;;18.40;99.90;;;;;;4966020;28;20557;-82
2022/10/05 12:35:02;;;;;;;0.43;0.43;;;18.30;99.90;;;;;;4966949;28;20044;-83
2022/10/05 12:37:55;;;;;;;0.50;0.50;;;18.30;99.90;;;;;;4947416;28;20527;-83
2022/10/05 12:40:32;;;;;;;0.40;0.40;;;18.20;99.90;;;;;;4975868;28;20598;-84
2022/10/05 12:43:10;;;;;;;0.40;0.40;;;18.20;99.90;;;;;;4969074;28;21471;-82
2022/10/05 12:45:38;;;;;;;0.50;0.50;;;18.20;99.90;;;;;;4975044;28;20088;-83
2022/10/05 12:48:55;;;;;;;0.40;0.40;;;18.30;99.90;;;;;;4956666;28;20664;-81
2022/10/05 12:51:30;;;;;;;0.40;0.40;;;18.30;99.90;;;;;;4977115;28;20133;-86
2022/10/05 12:54:21;;;;;;;0.40;0.40;;;18.30;99.90;;;;;;4961994;28;20045;-81
2022/10/05 12:57:02;;;;;;;0.50;0.50;;;18.30;99.90;;;;;;4967368;28;20122;-82
2022/10/05 12:59:31;;;;;;;0.47;0.47;;;18.40;99.90;;;;;;4951438;28;20625;-83
2022/10/05 13:02:09;;;;;;;0.50;0.50;;;18.50;99.90;;;;;;4978478;28;20151;-88
2022/10/05 13:05:07;;;;;;;0.40;0.40;;;18.70;99.90;;;;;;4974116;28;20930;-84
2022/10/05 13:07:52;;;;;;;0.40;0.40;;;18.70;99.90;;;;;;4967191;28;20705;-82
2022/10/05 13:10:18;;;;;;;0.40;0.40;;;18.80;99.90;;;;;;4953710;28;20532;-84
2022/10/05 13:13:38;;;;;;;0.40;0.40;;;18.70;99.90;;;;;;4963514;28;20846;-81
2022/10/05 13:16:27;;;;;;;0.40;0.40;;;18.90;99.90;;;;;;4925592;28;20041;-81
2022/10/05 13:19:18;;;;;;;0.43;0.43;;;18.90;99.90;;;;;;4971799;28;20422;-85
2022/10/05 13:22:03;;;;;;;0.50;0.50;;;18.90;99.90;;;;;;4972810;28;20521;-82
2022/10/05 13:24:37;;;;;;;0.40;0.40;;;19.00;99.90;;;;;;4976640;28;20127;-83
2022/10/05 13:27:15;;;;;;;0.45;0.45;;;19.10;99.90;;;;;;4950653;28;20094;-83
2022/10/05 13:29:50;;;;;;;0.40;0.40;;;19.20;99.90;;;;;;4968102;28;20168;-86
2022/10/05 13:32:16;;;;;;;0.40;0.40;;;19.50;99.90;;;;;;4974439;28;20052;-83
2022/10/05 13:35:12;;;;;;;0.40;0.40;;;19.40;99.90;;;;;;4970412;28;20044;-82
2022/10/05 13:38:00;;;;;;;0.40;0.40;;;19.50;99.90;;;;;;4978880;28;20087;-82
2022/10/05 13:41:02;;;;;;;0.30;0.30;;;19.30;99.90;;;;;;4973491;28;20806;-84
2022/10/05 13:43:32;;;;;;;0.40;0.40;;;19.30;99.90;;;;;;4962580;28;20391;-82
2022/10/05 13:46:15;;;;;;;0.40;0.40;;;19.30;99.90;;;;;;4969843;28;20056;-81
2022/10/05 13:49:20;;;;;;;0.40;0.40;;;19.40;99.90;;;;;;4965700;28;20055;-81
2022/10/05 13:52:09;;;;;;;;;;;19.60;99.90;;;;;;4974563;28;20912;-84
2022/10/05 13:54:44;;;;;;;0.40;0.40;;;19.80;99.90;;;;;;4923473;28;19924;-81
2022/10/05 13:57:17;;;;;;;0.40;0.40;;;19.70;99.90;;;;;;4973895;28;20058;-83
2022/10/05 13:59:48;;;;;;;0.40;0.40;;;19.60;99.90;;;;;;4956441;28;20787;-83
2022/10/05 14:02:21;;;;;;;0.40;0.40;;;19.70;99.90;;;;;;4975291;28;20045;-81
2022/10/05 14:05:13;;;;;;;0.40;0.40;;;19.80;99.90;;;;;;4991137;28;20500;-81
2022/10/05 14:07:52;;;;;;;0.40;0.40;;;19.80;99.90;;;;;;4964689;28;20380;-81
2022/10/05 14:10:32;;;;;;;0.40;0.40;;;19.70;99.90;;;;;;4967697;28;20141;-83
2022/10/05 14:12:58;;;;;;;0.40;0.40;;;19.60;99.90;;;;;;4969037;28;20048;-80
2022/10/05 14:15:31;;;;;;;0.40;0.40;;;19.60;99.90;;;;;;4977093;28;20041;-82
2022/10/05 14:17:57;;;;;;;0.40;0.40;;;19.50;99.90;;;;;;4983393;28;20079;-86